Time;durP1;ratioP1;P1;durP2;ratioP2;P2;SDS_P1;SDS_P2;PMS_P1;PMS_P2;Temp;Humidity;BMP_temperature;BMP_pressure;BME280_temperature;BME280_humidity;BME280_pressure;Samples;Min_cycle;Max_cycle;Signal;HPM_P1;HPM_P2
2023/04/05 00:01:39;;;;;;;10.55;4.18;;;1.60;99.90;;;;;;5120344;27;20035;-73
2023/04/05 00:04:06;;;;;;;12.13;5.10;;;1.50;99.90;;;;;;5107917;27;20046;-72
2023/04/05 00:06:32;;;;;;;10.93;4.25;;;1.50;99.90;;;;;;5116836;27;20047;-72
2023/04/05 00:08:59;;;;;;;6.78;3.72;;;1.50;99.90;;;;;;5110503;27;20052;-73
2023/04/05 00:11:26;;;;;;;8.23;4.00;;;1.40;99.90;;;;;;5129504;27;20039;-73
2023/04/05 00:13:51;;;;;;;7.63;3.97;;;1.40;99.90;;;;;;5129257;27;20048;-72
2023/04/05 00:16:18;;;;;;;8.45;4.25;;;2.00;99.90;;;;;;5126447;27;20492;-72
2023/04/05 00:18:45;;;;;;;12.27;4.03;;;1.40;99.90;;;;;;5131367;27;20101;-72
2023/04/05 00:21:14;;;;;;;9.88;4.65;;;1.90;99.90;;;;;;5121082;27;20043;-73
2023/04/05 00:23:40;;;;;;;9.80;4.85;;;1.30;99.90;;;;;;5122648;27;20035;-73
2023/04/05 00:26:06;;;;;;;9.65;4.05;;;1.30;99.90;;;;;;5121464;27;20104;-73
2023/04/05 00:28:33;;;;;;;10.60;4.40;;;1.30;99.90;;;;;;5116790;27;20073;-72
2023/04/05 00:30:59;;;;;;;9.88;4.63;;;1.20;99.90;;;;;;5123371;27;20071;-72
2023/04/05 00:33:24;;;;;;;12.50;4.80;;;1.20;99.90;;;;;;5126819;28;20043;-73
2023/04/05 00:35:50;;;;;;;8.25;4.32;;;1.20;99.90;;;;;;5105113;28;20496;-73
2023/04/05 00:38:16;;;;;;;9.80;4.88;;;1.20;99.90;;;;;;5131196;28;20043;-73
2023/04/05 00:40:41;;;;;;;12.30;4.95;;;1.20;99.90;;;;;;5123325;28;20039;-72
2023/04/05 00:43:07;;;;;;;11.70;5.18;;;1.20;99.90;;;;;;5122019;28;20032;-73
2023/04/05 00:45:33;;;;;;;12.10;5.03;;;1.20;99.90;;;;;;5114842;28;20035;-72
2023/04/05 00:47:59;;;;;;;9.93;4.70;;;1.10;99.90;;;;;;5121094;28;20043;-72
2023/04/05 00:50:29;;;;;;;11.23;4.63;;;1.10;99.90;;;;;;5134519;28;20047;-72
2023/04/05 00:52:57;;;;;;;12.55;5.10;;;1.10;99.90;;;;;;5128984;28;20073;-72
2023/04/05 00:55:22;;;;;;;11.90;5.10;;;1.00;99.90;;;;;;5106183;28;20059;-72
2023/04/05 00:57:48;;;;;;;14.80;5.28;;;1.10;99.90;;;;;;5121442;28;20053;-72
2023/04/05 01:00:15;;;;;;;10.18;4.60;;;1.10;99.90;;;;;;5099563;28;20043;-72
2023/04/05 01:02:48;;;;;;;12.40;5.93;;;1.00;99.90;;;;;;5134977;28;20384;-72
2023/04/05 01:05:37;;;;;;;9.30;5.32;;;1.00;99.90;;;;;;5130831;27;20172;-72
2023/04/05 01:08:39;;;;;;;11.90;5.50;;;1.00;99.90;;;;;;5129172;28;20041;-72
2023/04/05 01:11:07;;;;;;;9.13;4.60;;;1.00;99.90;;;;;;5121641;28;20032;-72
2023/04/05 01:13:32;;;;;;;8.57;4.80;;;1.00;99.90;;;;;;5109966;27;20035;-72
2023/04/05 01:15:58;;;;;;;12.68;4.47;;;0.90;99.90;;;;;;5123033;28;20392;-72
2023/04/05 01:18:26;;;;;;;10.75;4.90;;;0.90;99.90;;;;;;5125036;28;20089;-72
2023/04/05 01:21:19;;;;;;;8.68;5.00;;;0.90;99.90;;;;;;5130354;28;20031;-72
2023/04/05 01:23:58;;;;;;;13.73;5.55;;;0.80;99.90;;;;;;5125225;28;20050;-72
2023/04/05 01:26:24;;;;;;;;;;;0.80;99.90;;;;;;5125149;27;20058;-72
2023/04/05 01:29:27;;;;;;;10.18;4.57;;;0.80;99.90;;;;;;5131591;27;19919;-72
2023/04/05 01:31:58;;;;;;;8.50;5.15;;;0.80;99.90;;;;;;5132713;27;20054;-72
2023/04/05 01:34:41;;;;;;;16.67;5.35;;;0.80;99.90;;;;;;5132493;27;20393;-72
2023/04/05 01:37:10;;;;;;;10.88;5.35;;;0.80;99.90;;;;;;5126374;27;20043;-72
2023/04/05 01:39:36;;;;;;;12.80;5.45;;;0.70;99.90;;;;;;5125215;27;20064;-72
2023/04/05 01:42:03;;;;;;;9.75;4.60;;;0.70;99.90;;;;;;5121873;27;20118;-73
2023/04/05 01:44:29;;;;;;;8.60;4.75;;;0.70;99.90;;;;;;5130752;27;20062;-74
2023/04/05 01:46:55;;;;;;;14.38;5.90;;;0.70;99.90;;;;;;5124133;27;20031;-72
2023/04/05 01:49:22;;;;;;;14.82;6.03;;;0.60;99.90;;;;;;5121497;27;20074;-72
2023/04/05 01:51:48;;;;;;;13.27;4.93;;;0.60;99.90;;;;;;5103438;27;20039;-72
2023/04/05 01:54:14;;;;;;;9.65;4.85;;;0.60;99.90;;;;;;5117748;27;20089;-73
2023/04/05 01:56:40;;;;;;;12.32;5.18;;;0.60;99.90;;;;;;5117987;27;20186;-73
2023/04/05 01:59:06;;;;;;;12.77;5.82;;;0.60;99.90;;;;;;5123322;27;20050;-73
2023/04/05 02:01:32;;;;;;;13.63;5.45;;;0.50;99.90;;;;;;5109461;27;20036;-72
2023/04/05 02:03:57;;;;;;;8.65;5.15;;;0.50;99.90;;;;;;5119207;27;20156;-72
2023/04/05 02:06:23;;;;;;;14.95;5.75;;;0.50;99.90;;;;;;5117075;27;20122;-72
2023/04/05 02:08:48;;;;;;;7.93;4.85;;;0.50;99.90;;;;;;5126871;27;20043;-72
2023/04/05 02:11:14;;;;;;;8.25;4.93;;;0.50;99.90;;;;;;5122540;27;20035;-72
2023/04/05 02:13:40;;;;;;;11.13;5.18;;;0.50;99.90;;;;;;5129262;27;20039;-71
2023/04/05 02:16:05;;;;;;;9.00;5.15;;;0.40;99.90;;;;;;5113645;27;20027;-72
2023/04/05 02:18:31;;;;;;;11.70;5.15;;;0.40;99.90;;;;;;5116364;27;20168;-72
2023/04/05 02:21:15;;;;;;;11.80;5.38;;;0.40;99.90;;;;;;5121928;27;20039;-72
2023/04/05 02:23:41;;;;;;;11.32;5.50;;;0.40;99.90;;;;;;5124084;27;20050;-73
2023/04/05 02:26:07;;;;;;;11.32;5.53;;;0.40;99.90;;;;;;5122608;27;20110;-72
2023/04/05 02:28:33;;;;;;;9.85;5.68;;;0.30;99.90;;;;;;5122500;27;20043;-71
2023/04/05 02:30:58;;;;;;;10.70;6.20;;;0.30;99.90;;;;;;5120778;27;20031;-71
2023/04/05 02:33:24;;;;;;;11.32;5.90;;;0.30;99.90;;;;;;5104520;27;20114;-72
2023/04/05 02:35:51;;;;;;;13.32;5.80;;;0.30;99.90;;;;;;5109675;27;20530;-72
2023/04/05 02:38:17;;;;;;;9.73;5.68;;;0.30;99.90;;;;;;5109213;27;20079;-72
2023/04/05 02:40:45;;;;;;;12.50;6.40;;;0.30;99.90;;;;;;5113000;27;20067;-72
2023/04/05 02:43:11;;;;;;;;;;;0.20;99.90;;;;;;5128700;27;20097;-73
2023/04/05 02:45:36;;;;;;;10.18;5.53;;;0.20;99.90;;;;;;5125782;27;19945;-72
2023/04/05 02:48:02;;;;;;;13.48;5.97;;;0.20;99.90;;;;;;5124031;27;20092;-72
2023/04/05 02:50:28;;;;;;;10.25;5.32;;;0.10;99.90;;;;;;5100510;27;21689;-72
2023/04/05 02:52:55;;;;;;;12.65;6.50;;;0.10;99.90;;;;;;5109844;27;20035;-72
2023/04/05 02:55:20;;;;;;;14.88;6.57;;;0.10;99.90;;;;;;5126093;27;20138;-72
2023/04/05 02:57:46;;;;;;;12.05;6.35;;;0.10;99.90;;;;;;5131002;27;20463;-71
2023/04/05 03:00:12;;;;;;;12.70;5.95;;;0.10;99.90;;;;;;5118735;27;20109;-72
2023/04/05 03:02:38;;;;;;;13.20;6.72;;;0.10;99.90;;;;;;5129097;27;20027;-72
2023/04/05 03:05:05;;;;;;;10.45;5.88;;;0.40;99.90;;;;;;5123616;27;20047;-72
2023/04/05 03:07:31;;;;;;;9.73;6.07;;;0.00;99.90;;;;;;5128776;27;20036;-72
2023/04/05 03:09:57;;;;;;;13.70;6.65;;;0.00;99.90;;;;;;5113387;27;20046;-72
2023/04/05 03:12:23;;;;;;;14.18;6.25;;;0.00;99.90;;;;;;5112343;27;20126;-72
2023/04/05 03:14:48;;;;;;;12.02;6.70;;;0.00;99.90;;;;;;5117391;27;20494;-72
2023/04/05 03:17:14;;;;;;;14.15;7.13;;;-0.10;99.90;;;;;;5110287;27;20047;-71
2023/04/05 03:19:39;;;;;;;14.50;6.93;;;-0.10;99.90;;;;;;5131119;27;20377;-72
2023/04/05 03:22:06;;;;;;;13.50;6.95;;;-0.10;99.90;;;;;;5121803;27;20038;-71
2023/04/05 03:24:31;;;;;;;20.95;7.88;;;-0.10;99.90;;;;;;5107792;27;20051;-72
2023/04/05 03:27:02;;;;;;;16.23;8.00;;;-0.10;99.90;;;;;;5119449;27;20040;-72
2023/04/05 03:29:27;;;;;;;18.08;7.82;;;-0.10;99.90;;;;;;5124566;27;20043;-71
2023/04/05 03:31:53;;;;;;;13.43;7.20;;;-0.20;99.90;;;;;;5114791;27;20066;-71
2023/04/05 03:34:21;;;;;;;16.70;8.05;;;-0.20;99.90;;;;;;5119345;27;20441;-71
2023/04/05 03:36:48;;;;;;;12.47;7.27;;;-0.10;99.90;;;;;;5120885;27;20043;-72
2023/04/05 03:39:14;;;;;;;14.18;7.93;;;-0.20;99.90;;;;;;5126249;27;20049;-72
2023/04/05 03:41:40;;;;;;;17.42;7.95;;;-0.20;99.90;;;;;;5119430;27;20118;-72
2023/04/05 03:44:06;;;;;;;17.40;8.10;;;-0.20;99.90;;;;;;5102096;27;20035;-71
2023/04/05 03:46:32;;;;;;;17.50;8.40;;;-0.20;99.90;;;;;;5123403;27;20043;-71
2023/04/05 03:48:59;;;;;;;13.18;7.90;;;-0.30;99.90;;;;;;5118124;27;20039;-71
2023/04/05 03:51:26;;;;;;;18.85;7.95;;;-0.10;99.90;;;;;;5116953;27;20079;-72
2023/04/05 03:53:51;;;;;;;18.58;10.60;;;-0.30;99.90;;;;;;5127472;27;20063;-72
2023/04/05 03:56:17;;;;;;;14.82;7.82;;;-0.30;99.90;;;;;;5115634;27;20579;-71
2023/04/05 03:58:43;;;;;;;15.43;8.63;;;-0.30;99.90;;;;;;5130524;27;20043;-71
2023/04/05 04:01:09;;;;;;;19.33;9.10;;;-0.30;99.90;;;;;;5133221;27;20035;-72
2023/04/05 04:03:38;;;;;;;20.05;8.63;;;-0.30;99.90;;;;;;5115759;27;20039;-72
2023/04/05 04:06:04;;;;;;;;;;;0.00;99.90;;;;;;5115330;27;20036;-72
2023/04/05 04:08:30;;;;;;;16.25;8.50;;;-0.30;99.90;;;;;;5125670;27;19924;-72
2023/04/05 04:10:55;;;;;;;18.05;9.15;;;-0.30;99.90;;;;;;5124328;27;20036;-72
2023/04/05 04:13:21;;;;;;;18.48;8.93;;;-0.30;99.90;;;;;;5101709;27;20038;-72
2023/04/05 04:15:47;;;;;;;14.88;9.18;;;-0.30;99.90;;;;;;5131491;27;20070;-72
2023/04/05 04:18:13;;;;;;;16.67;8.70;;;-0.30;99.90;;;;;;5119619;27;20038;-72
2023/04/05 04:20:38;;;;;;;17.80;9.10;;;-0.30;99.90;;;;;;5126797;27;20169;-71
2023/04/05 04:23:05;;;;;;;14.48;8.70;;;-0.30;99.90;;;;;;5120420;27;20050;-72
2023/04/05 04:25:31;;;;;;;20.77;9.93;;;-0.30;99.90;;;;;;5128604;27;20071;-72
2023/04/05 04:27:57;;;;;;;18.98;9.60;;;-0.40;99.90;;;;;;5115082;27;20070;-71
2023/04/05 04:30:23;;;;;;;17.75;9.48;;;-0.40;99.90;;;;;;5082212;27;20183;-72
2023/04/05 04:32:53;;;;;;;19.17;10.25;;;-0.40;99.90;;;;;;5120141;27;20404;-71
2023/04/05 04:35:24;;;;;;;23.42;11.07;;;-0.40;99.90;;;;;;5120547;27;20039;-71
2023/04/05 04:37:58;;;;;;;23.50;10.63;;;-0.40;99.90;;;;;;5107183;28;20350;-71
2023/04/05 04:40:28;;;;;;;20.50;10.63;;;-0.40;99.90;;;;;;5117177;28;20065;-71
2023/04/05 04:42:57;;;;;;;24.48;10.13;;;-0.30;99.90;;;;;;5100838;28;20455;-71
2023/04/05 04:45:23;;;;;;;19.90;10.93;;;-0.30;99.90;;;;;;5094583;28;20405;-71
2023/04/05 04:47:52;;;;;;;22.42;11.93;;;-0.10;99.90;;;;;;5119726;28;20118;-71
2023/04/05 04:50:19;;;;;;;20.02;11.65;;;-0.20;99.90;;;;;;5115019;27;20047;-72
2023/04/05 04:52:45;;;;;;;20.67;11.05;;;-0.10;99.90;;;;;;5116369;28;20032;-72
2023/04/05 04:55:14;;;;;;;21.02;11.15;;;-0.10;99.90;;;;;;5115935;28;20056;-72
2023/04/05 04:57:41;;;;;;;18.95;10.63;;;-0.10;99.90;;;;;;5131450;27;20078;-71
2023/04/05 05:00:14;;;;;;;21.08;10.93;;;-0.20;99.90;;;;;;5113875;28;20370;-71
2023/04/05 05:02:42;;;;;;;20.25;11.27;;;-0.20;99.90;;;;;;5119079;28;20126;-71
2023/04/05 05:05:08;;;;;;;;;;;-0.20;99.90;;;;;;5122080;27;20047;-72
2023/04/05 05:07:35;;;;;;;16.55;9.90;;;-0.90;99.90;;;;;;5106355;27;19976;-72
2023/04/05 05:10:01;;;;;;;23.48;11.00;;;-0.20;99.90;;;;;;5124035;27;20043;-72
2023/04/05 05:12:27;;;;;;;18.83;10.80;;;-0.20;99.90;;;;;;5124251;27;20043;-73
2023/04/05 05:14:52;;;;;;;19.58;10.85;;;-0.20;99.90;;;;;;5130760;27;20043;-72
2023/04/05 05:17:18;;;;;;;19.95;10.23;;;-0.20;99.90;;;;;;5103528;27;20062;-70
2023/04/05 05:19:44;;;;;;;23.13;12.00;;;0.10;99.90;;;;;;5087864;27;20126;-70
2023/04/05 05:22:10;;;;;;;23.80;11.63;;;-0.20;99.90;;;;;;5130892;27;20398;-73
2023/04/05 05:24:36;;;;;;;22.02;11.35;;;-0.20;99.90;;;;;;5111371;27;20092;-71
2023/04/05 05:27:01;;;;;;;18.85;11.65;;;0.10;99.90;;;;;;5129100;27;20027;-72
2023/04/05 05:29:29;;;;;;;20.02;11.70;;;-0.10;99.90;;;;;;5125841;27;20098;-71
2023/04/05 05:31:55;;;;;;;20.75;11.20;;;-0.10;99.90;;;;;;5118162;27;20059;-71
2023/04/05 05:34:21;;;;;;;23.27;12.10;;;-0.10;99.90;;;;;;5128102;27;20031;-71
2023/04/05 05:36:46;;;;;;;21.33;11.23;;;-0.10;99.90;;;;;;5125572;27;20039;-71
2023/04/05 05:39:12;;;;;;;19.33;10.75;;;0.00;99.90;;;;;;5127813;27;20523;-72
2023/04/05 05:41:38;;;;;;;20.45;11.38;;;0.00;99.90;;;;;;5122073;27;20058;-72
2023/04/05 05:44:04;;;;;;;21.13;11.43;;;0.00;99.90;;;;;;5119474;27;20516;-72
2023/04/05 05:46:30;;;;;;;27.55;12.50;;;0.10;99.90;;;;;;5109744;27;20043;-73
2023/04/05 05:48:55;;;;;;;26.33;11.93;;;0.20;99.90;;;;;;5117930;27;20365;-72
2023/04/05 05:51:21;;;;;;;22.13;12.68;;;0.20;99.90;;;;;;5135422;27;20046;-72
2023/04/05 05:53:47;;;;;;;18.10;11.35;;;0.20;99.90;;;;;;5122604;27;20058;-73
2023/04/05 05:56:12;;;;;;;29.10;11.80;;;0.30;99.90;;;;;;5108353;27;20047;-73
2023/04/05 05:58:38;;;;;;;27.05;12.68;;;0.40;99.90;;;;;;5124108;27;20035;-72
2023/04/05 06:01:06;;;;;;;24.90;12.38;;;0.40;99.90;;;;;;5126569;27;20184;-71
2023/04/05 06:03:32;;;;;;;23.05;11.15;;;0.50;99.90;;;;;;5119831;27;20047;-72
2023/04/05 06:05:58;;;;;;;19.23;11.32;;;0.60;99.90;;;;;;5136324;27;20072;-71
2023/04/05 06:08:26;;;;;;;19.27;11.60;;;0.80;99.90;;;;;;5150133;27;20035;-72
2023/04/05 06:10:53;;;;;;;19.08;11.23;;;1.10;99.90;;;;;;5121004;27;21685;-73
2023/04/05 06:13:19;;;;;;;23.25;11.65;;;1.30;99.90;;;;;;5124994;27;20076;-72
2023/04/05 06:15:46;;;;;;;20.10;11.80;;;1.40;99.90;;;;;;5137633;27;20039;-72
2023/04/05 06:18:12;;;;;;;22.50;11.18;;;1.40;99.90;;;;;;5109896;27;20064;-72
2023/04/05 06:20:39;;;;;;;17.48;10.88;;;1.40;99.90;;;;;;5132671;27;20039;-72
2023/04/05 06:23:08;;;;;;;19.90;11.25;;;1.40;99.90;;;;;;5115851;27;20047;-72
2023/04/05 06:25:34;;;;;;;22.23;12.13;;;1.50;99.90;;;;;;5128918;27;20480;-72
2023/04/05 06:28:02;;;;;;;21.00;11.18;;;1.60;99.90;;;;;;5128227;27;20089;-73
2023/04/05 06:30:28;;;;;;;20.08;11.55;;;1.70;99.90;;;;;;5124946;27;20047;-72
2023/04/05 06:32:54;;;;;;;23.50;12.15;;;1.80;99.90;;;;;;5098746;27;20052;-72
2023/04/05 06:35:21;;;;;;;18.45;11.57;;;1.90;99.90;;;;;;5096434;27;20093;-73
2023/04/05 06:37:47;;;;;;;15.32;10.52;;;2.10;99.90;;;;;;5133975;27;20046;-73
2023/04/05 06:40:13;;;;;;;19.00;10.02;;;2.50;99.90;;;;;;5115665;28;20081;-72
2023/04/05 06:42:39;;;;;;;19.75;10.68;;;3.00;99.90;;;;;;5114077;27;20100;-72
2023/04/05 06:45:05;;;;;;;17.67;10.05;;;3.30;99.90;;;;;;5121178;27;20047;-72
2023/04/05 06:47:35;;;;;;;19.33;10.73;;;3.40;99.90;;;;;;5115103;27;20035;-72
2023/04/05 06:50:01;;;;;;;18.92;9.98;;;3.60;99.90;;;;;;5115635;28;20047;-73
2023/04/05 06:52:28;;;;;;;16.77;9.65;;;3.90;99.90;;;;;;5097615;28;20114;-73
2023/04/05 06:54:53;;;;;;;18.52;9.73;;;4.20;99.90;;;;;;5129822;27;20115;-72
2023/04/05 06:57:19;;;;;;;16.48;9.60;;;4.40;99.90;;;;;;5082235;28;20090;-73
2023/04/05 06:59:45;;;;;;;15.43;10.05;;;4.50;99.90;;;;;;5100672;28;20058;-71
2023/04/05 07:02:11;;;;;;;13.77;9.10;;;4.60;99.90;;;;;;5081960;28;20047;-72
2023/04/05 07:04:37;;;;;;;14.23;8.82;;;4.90;99.90;;;;;;5127374;27;20043;-72
2023/04/05 07:07:04;;;;;;;16.15;9.88;;;5.40;99.90;;;;;;5113972;27;20071;-72
2023/04/05 07:09:31;;;;;;;16.20;9.20;;;5.70;99.90;;;;;;5121548;27;20499;-73
2023/04/05 07:11:58;;;;;;;17.70;9.70;;;6.20;99.90;;;;;;5100342;27;20052;-73
2023/04/05 07:14:24;;;;;;;16.70;9.77;;;6.50;99.90;;;;;;5131057;27;20039;-72
2023/04/05 07:16:51;;;;;;;14.68;9.65;;;6.50;99.90;;;;;;5138610;27;20122;-73
2023/04/05 07:19:17;;;;;;;15.15;9.20;;;6.40;99.90;;;;;;5120744;27;20118;-73
2023/04/05 07:21:43;;;;;;;16.52;9.98;;;6.30;99.90;;;;;;5116217;27;20491;-73
2023/04/05 07:24:09;;;;;;;17.35;9.57;;;6.20;99.90;;;;;;5123720;27;20081;-73
2023/04/05 07:26:36;;;;;;;11.82;9.23;;;6.20;99.90;;;;;;5125246;27;20071;-73
2023/04/05 07:29:10;;;;;;;16.58;9.10;;;6.20;99.90;;;;;;5127255;27;20446;-72
2023/04/05 07:31:38;;;;;;;15.35;9.27;;;6.20;99.90;;;;;;5123506;27;20067;-73
2023/04/05 07:34:04;;;;;;;15.77;9.40;;;6.20;99.90;;;;;;5129637;27;20043;-72
2023/04/05 07:36:30;;;;;;;16.67;9.90;;;6.20;99.90;;;;;;5122690;27;20047;-71
2023/04/05 07:38:58;;;;;;;16.83;9.63;;;6.30;99.90;;;;;;5115201;28;20070;-71
2023/04/05 07:41:24;;;;;;;;;;;6.40;99.90;;;;;;5083967;27;20395;-73
2023/04/05 07:43:50;;;;;;;15.45;9.75;;;6.40;99.90;;;;;;5128696;27;20420;-72
2023/04/05 07:46:16;;;;;;;15.32;8.88;;;6.40;99.90;;;;;;5156754;27;20126;-72
2023/04/05 07:48:42;;;;;;;26.90;10.35;;;6.40;99.90;;;;;;5137804;27;20043;-72
2023/04/05 07:51:09;;;;;;;16.70;9.32;;;6.50;99.90;;;;;;5112442;27;20031;-70
2023/04/05 07:53:36;;;;;;;13.52;9.15;;;6.70;99.90;;;;;;5123382;27;20105;-73
2023/04/05 07:56:06;;;;;;;18.35;8.93;;;6.70;99.90;;;;;;5094899;28;20070;-73
2023/04/05 07:58:32;;;;;;;20.67;10.02;;;6.80;99.90;;;;;;5097519;28;20039;-73
2023/04/05 08:01:02;;;;;;;14.52;8.50;;;6.80;99.90;;;;;;5119680;27;20050;-72
2023/04/05 08:03:29;;;;;;;18.02;8.75;;;6.90;99.90;;;;;;5122529;28;20071;-73
2023/04/05 08:05:55;;;;;;;16.05;9.60;;;7.10;99.90;;;;;;5129250;28;20079;-72
2023/04/05 08:08:21;;;;;;;17.33;9.35;;;7.00;99.90;;;;;;5118146;27;20545;-71
2023/04/05 08:10:50;;;;;;;17.77;8.30;;;7.00;99.90;;;;;;5114550;27;20130;-72
2023/04/05 08:13:16;;;;;;;17.27;9.73;;;7.90;99.90;;;;;;5117485;28;20118;-72
2023/04/05 08:15:41;;;;;;;16.38;8.88;;;7.10;99.90;;;;;;5132695;28;20079;-73
2023/04/05 08:18:07;;;;;;;14.70;8.32;;;7.20;99.90;;;;;;5111781;27;20104;-72
2023/04/05 08:20:37;;;;;;;16.40;9.05;;;7.30;99.90;;;;;;5119356;27;20463;-72
2023/04/05 08:23:04;;;;;;;17.00;9.07;;;7.40;99.90;;;;;;5122564;27;20122;-72
2023/04/05 08:25:29;;;;;;;17.15;8.63;;;7.40;99.90;;;;;;5136219;27;20039;-73
2023/04/05 08:27:55;;;;;;;13.82;7.93;;;7.50;99.90;;;;;;5122743;27;20126;-72
2023/04/05 08:30:22;;;;;;;16.45;7.20;;;7.60;99.90;;;;;;5129290;27;20031;-71
2023/04/05 08:32:48;;;;;;;11.88;7.38;;;7.70;99.90;;;;;;5103765;28;20050;-73
2023/04/05 08:35:14;;;;;;;12.40;7.32;;;7.80;99.90;;;;;;5113295;28;20130;-72
2023/04/05 08:37:40;;;;;;;13.30;7.10;;;7.90;99.90;;;;;;5108199;28;20096;-72
2023/04/05 08:40:07;;;;;;;14.88;7.32;;;7.90;99.90;;;;;;5119060;27;20048;-74
2023/04/05 08:42:41;;;;;;;14.52;7.00;;;8.10;99.90;;;;;;5118025;28;20043;-74
2023/04/05 08:45:09;;;;;;;14.02;7.28;;;8.20;99.90;;;;;;5095881;28;20043;-74
2023/04/05 08:47:35;;;;;;;;;;;8.30;99.90;;;;;;5112788;28;20055;-72
2023/04/05 08:50:03;;;;;;;11.80;6.55;;;8.40;99.90;;;;;;5122357;28;19919;-73
2023/04/05 08:52:30;;;;;;;15.50;7.20;;;8.40;99.90;;;;;;5097174;28;20047;-73
2023/04/05 08:54:56;;;;;;;12.30;6.15;;;8.50;99.90;;;;;;5091839;27;1096356;-73
2023/04/05 08:57:26;;;;;;;13.32;6.38;;;8.70;99.90;;;;;;5131084;28;20404;-74
2023/04/05 08:59:56;;;;;;;8.20;5.32;;;8.90;99.90;;;;;;5110215;28;20123;-73
2023/04/05 09:02:23;;;;;;;13.60;5.97;;;9.20;99.90;;;;;;5119961;28;20075;-73
2023/04/05 09:04:50;;;;;;;11.57;5.47;;;9.20;99.90;;;;;;5104912;28;20071;-73
2023/04/05 09:07:18;;;;;;;12.60;5.95;;;9.40;99.90;;;;;;5116885;28;20393;-73
2023/04/05 09:09:51;;;;;;;12.10;5.18;;;9.50;98.80;;;;;;5117629;28;20050;-72
2023/04/05 09:12:20;;;;;;;11.93;4.78;;;9.50;98.50;;;;;;5116216;27;20058;-72
2023/04/05 09:14:47;;;;;;;11.75;5.57;;;9.60;98.30;;;;;;5132180;27;20047;-72
2023/04/05 09:17:16;;;;;;;8.48;5.32;;;9.70;96.70;;;;;;5127898;27;20076;-72
2023/04/05 09:19:42;;;;;;;10.35;4.70;;;9.60;96.60;;;;;;5120381;28;20492;-72
2023/04/05 09:22:09;;;;;;;10.23;5.10;;;9.70;97.00;;;;;;5107219;28;20118;-73
2023/04/05 09:24:40;;;;;;;8.02;4.97;;;9.70;95.50;;;;;;5117096;27;20503;-74
2023/04/05 09:27:17;;;;;;;8.65;4.72;;;9.80;96.40;;;;;;5123805;28;20051;-74
2023/04/05 09:29:51;;;;;;;9.05;4.85;;;10.20;96.00;;;;;;5078664;28;20043;-74
2023/04/05 09:32:19;;;;;;;8.98;4.68;;;10.20;95.80;;;;;;5115143;27;20082;-75
2023/04/05 09:34:46;;;;;;;9.18;4.65;;;10.30;96.00;;;;;;5112574;28;20523;-74
2023/04/05 09:37:17;;;;;;;9.13;4.78;;;10.50;95.90;;;;;;5094706;28;20040;-75
2023/04/05 09:39:43;;;;;;;10.88;5.35;;;10.50;94.10;;;;;;5095662;27;20075;-75
2023/04/05 09:42:16;;;;;;;13.25;4.63;;;10.50;94.00;;;;;;5145865;27;20114;-74
2023/04/05 09:44:51;;;;;;;9.55;4.80;;;10.50;93.50;;;;;;5135174;28;20077;-74
2023/04/05 09:47:18;;;;;;;6.40;4.22;;;10.70;93.90;;;;;;5122947;28;20200;-75
2023/04/05 09:49:44;;;;;;;10.93;5.30;;;10.80;93.10;;;;;;5115693;28;20456;-75
2023/04/05 09:52:27;;;;;;;9.05;4.70;;;10.90;94.20;;;;;;5115148;28;20094;-75
2023/04/05 09:54:55;;;;;;;10.15;4.32;;;11.00;93.30;;;;;;5128944;27;20059;-75
2023/04/05 09:57:26;;;;;;;10.90;5.13;;;11.10;92.10;;;;;;5130170;27;20412;-74
2023/04/05 09:59:52;;;;;;;8.73;5.00;;;11.10;91.30;;;;;;5136601;27;20123;-75
2023/04/05 10:02:19;;;;;;;9.50;4.60;;;11.10;91.80;;;;;;5106062;27;20381;-74
2023/04/05 10:04:47;;;;;;;8.65;4.53;;;11.20;92.10;;;;;;5118535;27;20061;-74
2023/04/05 10:07:17;;;;;;;7.40;3.92;;;11.30;92.40;;;;;;5120197;27;20047;-73
2023/04/05 10:09:47;;;;;;;7.32;4.35;;;11.70;92.20;;;;;;5114518;27;20044;-74
2023/04/05 10:12:24;;;;;;;10.48;4.22;;;11.80;91.20;;;;;;5120201;27;20039;-75
2023/04/05 10:14:49;;;;;;;5.72;3.67;;;12.00;90.50;;;;;;5127300;27;20537;-74
2023/04/05 10:17:33;;;;;;;9.48;4.03;;;12.10;90.10;;;;;;5128502;27;20047;-75
2023/04/05 10:19:58;;;;;;;10.50;3.80;;;12.40;89.30;;;;;;5097013;28;20147;-74
2023/04/05 10:22:43;;;;;;;11.45;3.67;;;12.60;89.90;;;;;;5122517;27;20118;-74
2023/04/05 10:25:52;;;;;;;9.07;4.40;;;13.00;86.20;;;;;;5115088;27;20096;-75
2023/04/05 10:28:35;;;;;;;7.10;4.20;;;13.40;81.60;;;;;;5113414;27;20088;-74
2023/04/05 10:31:15;;;;;;;7.63;4.55;;;13.50;79.80;;;;;;5119387;27;20034;-74
2023/04/05 10:33:46;;;;;;;6.63;3.92;;;13.60;82.20;;;;;;5117196;27;20652;-75
2023/04/05 10:36:15;;;;;;;10.05;5.25;;;13.90;82.90;;;;;;5128159;27;20039;-75
2023/04/05 10:38:55;;;;;;;6.82;4.18;;;14.10;82.90;;;;;;5109529;27;20046;-75
2023/04/05 10:41:21;;;;;;;7.90;4.03;;;14.40;81.20;;;;;;5107482;27;20043;-75
2023/04/05 10:43:48;;;;;;;7.53;4.18;;;14.50;79.00;;;;;;5115787;27;20511;-75
2023/04/05 10:46:19;;;;;;;6.05;4.20;;;14.80;81.30;;;;;;5126954;27;20073;-74
2023/04/05 10:48:57;;;;;;;5.95;4.38;;;15.00;79.10;;;;;;5135837;27;20392;-76
2023/04/05 10:51:26;;;;;;;7.87;4.93;;;15.00;74.90;;;;;;5120694;27;20055;-74
2023/04/05 10:53:53;;;;;;;5.53;3.90;;;15.20;75.70;;;;;;5115117;27;20063;-75
2023/04/05 10:56:20;;;;;;;7.28;4.15;;;15.30;72.40;;;;;;5129362;27;20050;-75
2023/04/05 10:58:47;;;;;;;9.15;4.38;;;15.00;74.10;;;;;;5097787;27;20052;-75
2023/04/05 11:01:16;;;;;;;6.88;4.05;;;15.10;74.90;;;;;;5095863;28;20055;-75
2023/04/05 11:03:47;;;;;;;7.18;4.35;;;15.10;72.60;;;;;;5113126;28;20085;-74
2023/04/05 11:06:34;;;;;;;6.55;4.22;;;15.20;73.00;;;;;;5097542;27;20052;-74
2023/04/05 11:09:16;;;;;;;8.27;5.10;;;15.30;70.50;;;;;;5123226;27;20035;-74
2023/04/05 11:11:47;;;;;;;11.85;4.15;;;15.30;70.10;;;;;;5131457;27;20031;-74
2023/04/05 11:14:18;;;;;;;7.38;3.92;;;14.90;71.20;;;;;;5124200;27;20043;-75
2023/04/05 11:16:47;;;;;;;8.48;4.60;;;14.30;70.10;;;;;;5107962;27;20035;-74
2023/04/05 11:19:15;;;;;;;7.18;4.13;;;13.90;70.50;;;;;;5111095;27;20116;-74
2023/04/05 11:21:43;;;;;;;7.43;4.68;;;14.00;71.40;;;;;;5134362;27;20476;-75
2023/04/05 11:24:11;;;;;;;7.45;3.95;;;14.40;73.30;;;;;;5114064;27;20139;-75
2023/04/05 11:26:40;;;;;;;10.25;5.03;;;14.90;72.20;;;;;;5102842;27;20039;-76
2023/04/05 11:29:09;;;;;;;6.40;3.85;;;15.30;71.50;;;;;;5133513;27;20035;-73
2023/04/05 11:31:35;;;;;;;6.78;4.20;;;15.30;68.00;;;;;;5130046;27;20035;-75
2023/04/05 11:34:09;;;;;;;6.68;4.13;;;15.30;70.40;;;;;;5131023;27;20169;-74
2023/04/05 11:36:35;;;;;;;5.43;3.80;;;15.80;70.30;;;;;;5122616;27;20159;-76
2023/04/05 11:39:21;;;;;;;7.97;5.80;;;16.00;70.50;;;;;;5131025;27;20039;-75
2023/04/05 11:41:56;;;;;;;6.32;3.70;;;16.30;68.20;;;;;;5093883;27;20092;-75
2023/04/05 11:44:25;;;;;;;7.47;4.07;;;16.40;68.90;;;;;;5121262;27;20500;-74
2023/04/05 11:46:52;;;;;;;7.18;3.72;;;16.60;68.50;;;;;;5123842;27;20088;-76
2023/04/05 11:49:22;;;;;;;6.43;3.70;;;17.00;68.00;;;;;;5094925;28;20407;-76
2023/04/05 11:51:50;;;;;;;5.85;4.22;;;17.20;65.60;;;;;;5132916;27;20028;-74
2023/04/05 11:54:29;;;;;;;8.30;4.00;;;17.30;65.70;;;;;;5111411;27;20138;-74
2023/04/05 11:56:55;;;;;;;8.02;4.32;;;17.60;62.70;;;;;;5122939;27;20053;-74
2023/04/05 11:59:30;;;;;;;6.88;4.07;;;17.50;64.30;;;;;;5120953;27;20527;-74
2023/04/05 12:02:04;;;;;;;7.78;4.03;;;17.30;60.70;;;;;;5096898;28;20032;-74
2023/04/05 12:04:31;;;;;;;10.77;3.88;;;17.10;62.90;;;;;;5131813;27;20078;-75
2023/04/05 12:07:17;;;;;;;8.30;3.90;;;17.00;62.70;;;;;;5115508;27;20063;-74
2023/04/05 12:10:01;;;;;;;9.15;3.53;;;17.00;61.40;;;;;;5120774;27;20839;-74
2023/04/05 12:12:27;;;;;;;7.70;3.80;;;17.30;60.50;;;;;;5092368;28;20043;-75
2023/04/05 12:14:59;;;;;;;6.75;3.75;;;17.40;62.40;;;;;;5078964;27;20119;-76
2023/04/05 12:17:38;;;;;;;5.88;3.95;;;17.50;61.20;;;;;;5119955;27;20534;-75
2023/04/05 12:20:05;;;;;;;6.88;4.07;;;17.50;59.00;;;;;;5123532;27;20039;-76
2023/04/05 12:22:31;;;;;;;5.50;3.45;;;17.50;58.60;;;;;;5083486;28;20062;-75
2023/04/05 12:24:57;;;;;;;6.60;3.92;;;17.30;59.70;;;;;;5130770;27;20037;-77
2023/04/05 12:27:24;;;;;;;6.97;4.10;;;17.20;60.50;;;;;;5103505;27;20043;-76
2023/04/05 12:30:09;;;;;;;6.85;3.88;;;17.10;60.00;;;;;;5132145;27;20484;-74
2023/04/05 12:32:39;;;;;;;7.95;4.15;;;16.10;58.30;;;;;;5120640;27;20046;-74
2023/04/05 12:35:09;;;;;;;4.88;3.72;;;15.80;60.60;;;;;;5120170;27;20040;-75
2023/04/05 12:37:35;;;;;;;5.75;3.83;;;16.00;59.90;;;;;;5132134;27;20089;-75
2023/04/05 12:40:04;;;;;;;6.97;3.95;;;15.90;60.30;;;;;;5120366;28;20040;-76
2023/04/05 12:42:34;;;;;;;5.57;3.92;;;16.00;59.80;;;;;;5095570;28;20036;-75
2023/04/05 12:45:22;;;;;;;6.88;3.80;;;16.40;60.10;;;;;;5100678;28;20082;-75
2023/04/05 12:47:50;;;;;;;6.13;3.80;;;16.90;59.50;;;;;;5094866;28;20047;-76
2023/04/05 12:50:17;;;;;;;9.75;3.80;;;17.30;58.80;;;;;;5114464;28;20036;-77
2023/04/05 12:53:05;;;;;;;7.50;3.90;;;17.80;59.60;;;;;;5114959;27;20089;-76